< Typhoon 196505 1965 Season Typhoon 196507 >
Typhoon 196506 (AMY)
General InformationTrack Information on Google Maps || Disaster Info.ResourceGoogle EarthGE AnimationAtom FeedGeoJSON
Detalied Best Track (Time Zone = UTC)
Year Month Day Hour Lat. Long. Pressure (hPa) Wind (kt) Class Image Chart
1965 5 20 06 9.0 134.0 1005 0 2 -- Chart
1965 5 20 12 9.1 133.1 1006 0 2 -- Chart
1965 5 20 18 9.5 132.5 1004 0 2 -- Chart
1965 5 21 00 9.8 131.5 1002 0 2 -- Chart
1965 5 21 06 10.1 130.7 1000 0 2 -- Chart
1965 5 21 12 10.8 130.1 1000 0 2 -- Chart
1965 5 21 18 11.5 129.4 1000 0 2 -- Chart
1965 5 22 00 12.0 128.5 1002 0 2 -- Chart
1965 5 22 06 12.3 128.1 1000 0 2 -- Chart
1965 5 22 12 12.6 127.4 1000 0 9 -- Chart
1965 5 22 18 13.1 126.1 1000 0 9 -- Chart
1965 5 23 00 13.4 125.5 998 0 9 -- Chart
1965 5 23 06 13.9 124.9 994 0 9 -- Chart
1965 5 23 12 14.5 124.5 992 0 9 -- Chart
1965 5 23 18 15.2 124.0 992 0 9 -- Chart
1965 5 24 00 15.6 124.0 990 0 9 -- Chart
1965 5 24 06 16.0 124.0 990 0 9 -- Chart
1965 5 24 12 16.5 124.0 988 0 9 -- Chart
1965 5 24 18 16.8 124.0 986 0 9 -- Chart
1965 5 25 00 17.3 124.2 980 0 9 -- Chart
1965 5 25 06 18.5 125.1 980 0 9 -- Chart
1965 5 25 12 20.1 126.4 980 0 9 -- Chart
1965 5 25 18 21.7 127.8 980 0 9 -- Chart
1965 5 26 00 23.1 129.3 980 0 9 -- Chart
1965 5 26 06 24.7 131.1 980 0 9 -- Chart
1965 5 26 12 26.8 132.9 980 0 9 -- Chart
1965 5 26 18 30.2 135.5 976 0 9 -- Chart
1965 5 27 00 34.1 138.6 978 0 9 -- Chart
1965 5 27 06 37.1 142.2 980 0 9 -- Chart
1965 5 27 12 37.8 143.5 990 0 6 -- Chart
1965 5 27 18 39.0 148.9 990 0 6 -- Chart
1965 5 28 00 40.0 155.0 990 0 6 -- Chart
1965 5 28 06 41.3 162.0 990 0 6 -- Chart
1965 5 28 12 42.8 167.6 988 0 6 -- Chart
1965 5 28 18 44.0 174.0 980 0 6 -- Chart
1965 5 29 00 45.0 178.0 980 0 6 -- Chart
1965 5 29 06 48.0 182.0 978 0 6 -- Chart
Japan Meteorological Agency Best Track Data | Correction Date : 1991-07-16
< Typhoon 196505 1965 Season Typhoon 196507 >

Help